Time;durP1;ratioP1;P1;durP2;ratioP2;P2;SDS_P1;SDS_P2;PMS_P1;PMS_P2;Temp;Humidity;BMP_temperature;BMP_pressure;BME280_temperature;BME280_humidity;BME280_pressure;Samples;Min_cycle;Max_cycle;Signal;HPM_P1;HPM_P2
2023/04/27 00:00:13;;;;;;;1.07;1.07;;;;;;;9.13;70.85;95464.72;4342609;32;20347;-61
2023/04/27 00:02:39;;;;;;;1.10;1.10;;;;;;;9.14;71.32;95465.50;4364552;32;20314;-61
2023/04/27 00:05:10;;;;;;;1.63;0.90;;;;;;;9.11;71.22;95460.75;4353282;32;20199;-61
2023/04/27 00:07:35;;;;;;;1.17;1.10;;;;;;;8.96;71.95;95454.53;4377822;32;20277;-61
2023/04/27 00:10:02;;;;;;;2.30;1.40;;;;;;;9.03;71.97;95454.22;4384409;32;20321;-61
2023/04/27 00:12:28;;;;;;;0.70;0.70;;;;;;;9.09;72.07;95450.44;4376626;32;20180;-60
2023/04/27 00:14:55;;;;;;;1.30;1.30;;;;;;;9.17;72.35;95449.03;4390382;32;20302;-61
2023/04/27 00:17:24;;;;;;;1.60;1.57;;;;;;;9.22;71.61;95451.63;4382993;32;20280;-59
2023/04/27 00:19:53;;;;;;;2.43;1.37;;;;;;;9.29;71.73;95452.09;4372407;32;20276;-59
2023/04/27 00:22:21;;;;;;;1.10;1.10;;;;;;;9.34;71.68;95454.69;4387329;32;20180;-60
2023/04/27 00:24:48;;;;;;;1.07;1.07;;;;;;;9.23;71.51;95458.50;4377483;32;20311;-59
2023/04/27 00:27:14;;;;;;;0.77;0.77;;;;;;;9.19;71.77;95447.69;4352361;32;20188;-60
2023/04/27 00:29:42;;;;;;;0.67;0.67;;;;;;;9.08;71.70;95458.66;4364658;32;20276;-59
2023/04/27 00:32:10;;;;;;;1.10;1.10;;;;;;;8.96;72.26;95449.22;4359782;32;20193;-60
2023/04/27 00:34:37;;;;;;;1.13;1.13;;;;;;;8.87;72.55;95450.91;4352203;32;20286;-59
2023/04/27 00:37:06;;;;;;;1.80;1.70;;;;;;;9.04;72.01;95441.75;4389393;32;20307;-60
2023/04/27 00:39:34;;;;;;;1.20;1.20;;;;;;;8.95;72.31;95441.56;4348649;32;20312;-59
2023/04/27 00:42:01;;;;;;;1.17;1.17;;;;;;;9.01;72.14;95444.97;4363703;32;20365;-60
2023/04/27 00:44:32;;;;;;;1.23;1.20;;;;;;;9.07;71.89;95439.34;4352071;32;20285;-59
2023/04/27 00:47:00;;;;;;;0.80;0.80;;;;;;;9.09;71.85;95441.72;4349710;32;20185;-60
2023/04/27 00:49:26;;;;;;;1.73;1.37;;;;;;;9.27;71.64;95438.34;4351845;32;20355;-60
2023/04/27 00:51:52;;;;;;;1.07;0.70;;;;;;;9.24;71.85;95444.19;4369238;32;20191;-60
2023/04/27 00:54:22;;;;;;;1.50;1.40;;;;;;;9.07;73.07;95443.84;4387248;32;20368;-60
2023/04/27 00:56:54;;;;;;;1.57;1.50;;;;;;;9.00;72.31;95433.59;4375229;32;20280;-60
2023/04/27 00:59:20;;;;;;;3.60;1.37;;;;;;;9.07;72.73;95438.56;4382198;32;20291;-59
2023/04/27 01:01:49;;;;;;;1.07;0.87;;;;;;;8.99;73.09;95442.59;4378684;32;20339;-60
2023/04/27 01:04:16;;;;;;;0.90;0.90;;;;;;;9.10;72.65;95445.94;4371992;32;20321;-60
2023/04/27 01:06:42;;;;;;;1.07;1.07;;;;;;;9.21;72.05;95439.47;4367667;32;20183;-59
2023/04/27 01:09:10;;;;;;;0.97;0.93;;;;;;;9.23;71.67;95432.81;4342729;32;20323;-59
2023/04/27 01:11:37;;;;;;;4.23;2.60;;;;;;;9.20;71.87;95443.97;4369173;32;20189;-59
2023/04/27 01:14:05;;;;;;;1.20;1.20;;;;;;;9.03;72.59;95440.19;4370188;32;20345;-59
2023/04/27 01:16:33;;;;;;;1.43;1.43;;;;;;;9.15;72.25;95437.94;4356845;32;20319;-60
2023/04/27 01:18:58;;;;;;;0.90;0.90;;;;;;;9.13;72.42;95448.81;4367849;32;20291;-59
2023/04/27 01:21:25;;;;;;;1.37;1.33;;;;;;;9.16;71.98;95452.75;4363311;32;20330;-59
2023/04/27 01:23:53;;;;;;;1.60;1.50;;;;;;;9.04;72.78;95444.41;4371477;32;20224;-59
2023/04/27 01:26:20;;;;;;;0.63;0.63;;;;;;;9.08;72.00;95446.22;4377100;32;20287;-59
2023/04/27 01:28:47;;;;;;;9.50;2.00;;;;;;;9.04;72.00;95449.72;4342470;32;20331;-59
2023/04/27 01:31:14;;;;;;;2.00;0.80;;;;;;;9.02;72.22;95441.25;4328263;32;20344;-59
2023/04/27 01:33:41;;;;;;;0.77;0.77;;;;;;;9.15;71.92;95438.72;4365493;32;20284;-59
2023/04/27 01:36:08;;;;;;;10.93;1.33;;;;;;;9.16;71.44;95439.50;4369123;32;20276;-59
2023/04/27 01:38:36;;;;;;;0.93;0.93;;;;;;;9.16;71.56;95442.16;4352579;32;20288;-59
2023/04/27 01:41:06;;;;;;;2.63;1.37;;;;;;;9.20;71.22;95440.53;4372101;32;20284;-59
2023/04/27 01:43:32;;;;;;;1.47;1.37;;;;;;;9.07;70.64;95439.34;4367598;32;20202;-59
2023/04/27 01:46:13;;;;;;;0.97;0.87;;;;;;;9.20;70.52;95443.97;4359918;32;20296;-59
2023/04/27 01:48:41;;;;;;;1.27;1.27;;;;;;;9.24;70.47;95446.84;4380440;32;20196;-60
2023/04/27 01:51:08;;;;;;;1.10;1.10;;;;;;;9.29;69.80;95444.16;4386648;32;20294;-59
2023/04/27 01:53:35;;;;;;;1.20;1.03;;;;;;;9.52;69.23;95448.66;4376835;32;20276;-59
2023/04/27 01:56:01;;;;;;;1.23;1.23;;;;;;;9.37;69.51;95448.81;4386887;32;20305;-59
2023/04/27 01:58:28;;;;;;;0.57;0.57;;;;;;;9.26;70.02;95450.78;4345997;32;20185;-59
2023/04/27 02:00:55;;;;;;;2.53;1.30;;;;;;;9.41;69.57;95449.03;4358820;32;20293;-59
2023/04/27 02:03:20;;;;;;;1.17;1.13;;;;;;;9.36;69.58;95455.16;4371544;32;20297;-59
2023/04/27 02:05:47;;;;;;;1.67;1.57;;;;;;;9.36;69.43;95452.53;4363947;32;20368;-59
2023/04/27 02:08:14;;;;;;;3.30;1.07;;;;;;;9.25;70.51;95451.06;4364007;32;20374;-59
2023/04/27 02:10:41;;;;;;;1.17;1.17;;;;;;;9.25;70.65;95448.44;4370660;32;20279;-59
2023/04/27 02:13:06;;;;;;;1.47;1.37;;;;;;;9.16;72.24;95458.81;4342928;32;20289;-59
2023/04/27 02:15:34;;;;;;;0.43;0.43;;;;;;;9.11;71.98;95458.91;4366592;32;20294;-60
2023/04/27 02:18:03;;;;;;;1.47;1.37;;;;;;;9.19;70.76;95452.97;4364278;32;20185;-59
2023/04/27 02:20:31;;;;;;;1.20;1.17;;;;;;;9.36;70.21;95452.53;4365165;32;20294;-59
2023/04/27 02:22:58;;;;;;;1.20;1.20;;;;;;;9.25;70.78;95451.06;4303356;32;20274;-59
2023/04/27 02:25:27;;;;;;;1.47;1.37;;;;;;;9.37;70.21;95454.09;4367748;32;20284;-59
2023/04/27 02:27:57;;;;;;;1.83;1.73;;;;;;;9.41;70.01;95457.78;4361844;32;20281;-59
2023/04/27 02:30:23;;;;;;;0.83;0.83;;;;;;;9.23;70.33;95463.78;4363795;32;20348;-60
2023/04/27 02:32:49;;;;;;;3.40;1.00;;;;;;;9.13;71.51;95464.72;4349462;32;20344;-60
2023/04/27 02:35:14;;;;;;;0.53;0.53;;;;;;;9.24;72.00;95466.16;4365129;32;20180;-59
2023/04/27 02:37:40;;;;;;;1.07;1.07;;;;;;;8.99;73.31;95468.25;4388523;32;20196;-59
2023/04/27 02:40:08;;;;;;;1.43;1.33;;;;;;;9.17;72.22;95471.00;4363952;32;20184;-59
2023/04/27 02:42:33;;;;;;;1.00;1.00;;;;;;;9.26;71.62;95469.31;4383424;32;20220;-59
2023/04/27 02:45:01;;;;;;;0.87;0.87;;;;;;;9.21;71.32;95469.38;4363319;32;20295;-59
2023/04/27 02:47:27;;;;;;;17.27;1.27;;;;;;;9.24;70.05;95476.75;4371861;32;20189;-59
2023/04/27 02:49:52;;;;;;;1.07;1.07;;;;;;;9.00;69.55;95468.00;4358046;32;20342;-60
2023/04/27 02:52:17;;;;;;;0.77;0.77;;;;;;;8.78;70.12;95483.53;4361646;32;20277;-59
2023/04/27 02:54:44;;;;;;;1.13;0.90;;;;;;;8.67;71.08;95477.53;4349713;32;20215;-59
2023/04/27 02:57:10;;;;;;;0.87;0.87;;;;;;;8.81;70.00;95478.47;4366228;32;20195;-59
2023/04/27 02:59:37;;;;;;;1.10;1.03;;;;;;;8.78;69.50;95484.31;4351062;32;20293;-59
2023/04/27 03:02:04;;;;;;;0.80;0.80;;;;;;;8.77;69.72;95477.44;4364596;32;20311;-59
2023/04/27 03:04:32;;;;;;;1.80;1.63;;;;;;;8.95;69.86;95473.31;4372804;32;20291;-59
2023/04/27 03:06:59;;;;;;;1.23;1.13;;;;;;;8.85;70.60;95471.56;4384231;32;20287;-59
2023/04/27 03:09:26;;;;;;;1.10;1.10;;;;;;;8.79;71.11;95479.81;4383204;32;20335;-59
2023/04/27 03:11:55;;;;;;;8.70;1.40;;;;;;;8.83;71.02;95475.56;4378625;32;20277;-59
2023/04/27 03:14:24;;;;;;;1.70;0.70;;;;;;;8.70;72.32;95470.91;4355613;32;20351;-59
2023/04/27 03:16:50;;;;;;;1.07;1.07;;;;;;;8.71;72.24;95467.22;4352137;32;20289;-59
2023/04/27 03:19:19;;;;;;;1.33;1.33;;;;;;;8.89;71.19;95469.97;4368597;32;20312;-59
2023/04/27 03:21:44;;;;;;;1.10;1.10;;;;;;;8.77;71.59;95469.50;4364126;32;20299;-59
2023/04/27 03:24:12;;;;;;;1.80;1.70;;;;;;;8.75;72.05;95468.22;4390891;32;20311;-59
2023/04/27 03:26:37;;;;;;;0.87;0.87;;;;;;;8.70;72.83;95477.00;4366193;32;20322;-59
2023/04/27 03:29:07;;;;;;;0.93;0.93;;;;;;;8.66;73.31;95478.63;4380064;32;20312;-59
2023/04/27 03:31:35;;;;;;;1.23;1.23;;;;;;;8.58;74.07;95473.91;4376939;32;20202;-59
2023/04/27 03:34:01;;;;;;;1.27;1.27;;;;;;;8.80;73.86;95487.47;4370956;32;20298;-58
2023/04/27 03:36:27;;;;;;;0.90;0.90;;;;;;;8.83;73.49;95492.22;4361764;32;20272;-59
2023/04/27 03:38:52;;;;;;;1.20;1.20;;;;;;;8.92;73.57;95480.00;4344789;32;20222;-60
2023/04/27 03:41:22;;;;;;;0.90;0.90;;;;;;;8.69;74.22;95485.22;4339562;32;20273;-59
2023/04/27 03:43:51;;;;;;;0.90;0.90;;;;;;;8.52;75.26;95490.91;4374147;32;20188;-59
2023/04/27 03:46:18;;;;;;;6.67;1.57;;;;;;;8.52;75.57;95496.94;4354307;32;20269;-59
2023/04/27 03:48:43;;;;;;;1.53;1.53;;;;;;;8.49;75.85;95494.09;4361041;32;20291;-59
2023/04/27 03:51:09;;;;;;;1.60;1.50;;;;;;;8.58;75.46;95495.84;4383293;32;20276;-59
2023/04/27 03:53:35;;;;;;;2.13;1.90;;;;;;;8.60;74.89;95482.34;4367237;32;20192;-59
2023/04/27 03:56:01;;;;;;;2.47;0.73;;;;;;;8.80;73.64;95476.09;4362056;32;20193;-59
2023/04/27 03:58:27;;;;;;;1.00;1.00;;;;;;;8.88;73.18;95483.47;4365968;32;20339;-59
2023/04/27 04:00:56;;;;;;;1.07;1.07;;;;;;;8.99;72.49;95484.13;4365217;32;20195;-60
2023/04/27 04:03:22;;;;;;;1.63;1.53;;;;;;;8.80;73.24;95492.78;4367186;32;20287;-60
2023/04/27 04:05:47;;;;;;;1.07;0.83;;;;;;;8.71;74.13;95494.44;4360494;32;20295;-59
2023/04/27 04:08:17;;;;;;;0.83;0.83;;;;;;;8.68;74.59;95505.56;4361920;32;20253;-59
2023/04/27 04:10:43;;;;;;;2.13;1.93;;;;;;;8.63;75.59;95505.59;4375288;32;20260;-59
2023/04/27 04:13:09;;;;;;;1.03;1.03;;;;;;;8.60;75.88;95512.22;4352610;32;20351;-60
2023/04/27 04:15:36;;;;;;;1.10;1.10;;;;;;;8.63;75.83;95518.81;4357348;32;20276;-60
2023/04/27 04:18:02;;;;;;;1.60;1.50;;;;;;;8.62;75.66;95519.87;4381560;32;20180;-60
2023/04/27 04:20:29;;;;;;;1.93;1.83;;;;;;;8.52;76.23;95517.34;4383283;32;20311;-60
2023/04/27 04:22:57;;;;;;;0.83;0.83;;;;;;;8.43;77.41;95525.03;4359504;32;20276;-60
2023/04/27 04:25:27;;;;;;;0.67;0.67;;;;;;;8.39;77.84;95525.84;4388717;32;20279;-60
2023/04/27 04:27:52;;;;;;;0.90;0.90;;;;;;;8.36;78.38;95526.41;4364040;32;20280;-61
2023/04/27 04:30:18;;;;;;;0.77;0.77;;;;;;;8.38;78.34;95526.91;4377592;32;20299;-59
2023/04/27 04:32:47;;;;;;;1.20;1.20;;;;;;;8.74;76.46;95535.41;4353408;32;20192;-60
2023/04/27 04:35:13;;;;;;;1.67;1.57;;;;;;;8.79;76.27;95538.00;4351606;32;20375;-59
2023/04/27 04:37:39;;;;;;;1.30;1.30;;;;;;;8.67;76.73;95534.94;4334284;32;20272;-60
2023/04/27 04:40:12;;;;;;;1.03;1.03;;;;;;;8.78;76.67;95537.22;4371881;32;20199;-60
2023/04/27 04:42:40;;;;;;;1.37;1.27;;;;;;;8.75;76.74;95542.25;4326723;32;20308;-60
2023/04/27 04:45:09;;;;;;;0.40;0.40;;;;;;;8.76;76.74;95554.44;4346492;32;20267;-59
2023/04/27 04:47:35;;;;;;;3.80;1.80;;;;;;;8.64;77.43;95549.50;4348841;32;20332;-60
2023/04/27 04:50:05;;;;;;;0.97;0.97;;;;;;;8.52;78.79;95546.41;4353014;32;20281;-60
2023/04/27 04:52:32;;;;;;;1.27;1.27;;;;;;;8.55;78.81;95543.19;4345488;32;20277;-60
2023/04/27 04:54:57;;;;;;;0.93;0.93;;;;;;;8.65;78.61;95543.16;4364007;32;20316;-60
2023/04/27 04:57:30;;;;;;;1.80;1.70;;;;;;;8.68;77.99;95532.03;4355698;32;20324;-60
2023/04/27 04:59:57;;;;;;;1.50;1.40;;;;;;;8.81;77.14;95539.31;4377843;32;20192;-60
2023/04/27 05:02:26;;;;;;;0.80;0.80;;;;;;;8.98;76.86;95546.06;4351238;32;20289;-61
2023/04/27 05:04:52;;;;;;;1.43;1.33;;;;;;;8.87;77.04;95540.88;4353947;32;20340;-61
2023/04/27 05:07:18;;;;;;;3.03;1.77;;;;;;;8.87;76.89;95546.16;4331644;32;20273;-60
2023/04/27 05:09:43;;;;;;;1.07;1.07;;;;;;;8.87;77.36;95545.38;4347176;32;20213;-60
2023/04/27 05:12:10;;;;;;;0.87;0.87;;;;;;;8.54;78.14;95550.34;4363420;32;20276;-60
2023/04/27 05:14:37;;;;;;;1.77;1.67;;;;;;;8.79;77.57;95551.22;4370099;32;20202;-60
2023/04/27 05:17:03;;;;;;;1.37;1.37;;;;;;;8.76;77.46;95557.06;4369546;32;20285;-60
2023/04/27 05:19:30;;;;;;;1.33;1.30;;;;;;;8.87;77.07;95550.66;4380247;32;20264;-60
2023/04/27 05:22:19;;;;;;;0.87;0.87;;;;;;;9.05;76.29;95554.47;4374969;32;20211;-60
2023/04/27 05:24:45;;;;;;;0.87;0.87;;;;;;;8.92;76.59;95563.84;4357132;32;20394;-60
2023/04/27 05:27:13;;;;;;;1.47;1.27;;;;;;;9.00;76.47;95565.87;4367810;32;20363;-60
2023/04/27 05:29:38;;;;;;;1.67;1.57;;;;;;;8.84;77.99;95567.88;4361972;32;20199;-60
2023/04/27 05:32:05;;;;;;;1.53;1.47;;;;;;;8.83;77.78;95561.00;4341091;32;20351;-60
2023/04/27 05:34:33;;;;;;;1.43;1.33;;;;;;;8.85;77.87;95556.22;4370323;32;20195;-60
2023/04/27 05:36:58;;;;;;;1.97;1.17;;;;;;;9.02;77.51;95547.88;4370368;32;20367;-61
2023/04/27 05:39:25;;;;;;;1.97;1.73;;;;;;;9.14;76.69;95550.97;4354691;32;20271;-61
2023/04/27 05:41:50;;;;;;;1.40;1.30;;;;;;;8.99;76.38;95547.66;4367450;32;20189;-60
2023/04/27 05:44:18;;;;;;;3.10;1.77;;;;;;;8.92;76.38;95562.00;4338931;32;20445;-60
2023/04/27 05:46:47;;;;;;;6.63;2.10;;;;;;;9.00;76.78;95559.81;4360875;32;20191;-60
2023/04/27 05:49:16;;;;;;;1.53;1.43;;;;;;;9.30;75.85;95562.22;4379787;32;20362;-60
2023/04/27 05:51:42;;;;;;;1.50;1.20;;;;;;;9.31;75.51;95577.03;4367421;32;20284;-60
2023/04/27 05:54:09;;;;;;;1.90;1.80;;;;;;;9.51;75.14;95582.13;4385498;32;20279;-60
2023/04/27 05:56:36;;;;;;;1.10;1.10;;;;;;;9.45;74.67;95579.81;4373870;32;20337;-60
2023/04/27 05:59:03;;;;;;;3.40;2.13;;;;;;;9.28;74.63;95578.38;4369446;32;20281;-60
2023/04/27 06:01:29;;;;;;;0.73;0.73;;;;;;;9.33;74.50;95580.19;4364505;32;20288;-60
2023/04/27 06:04:00;;;;;;;1.30;1.30;;;;;;;9.30;74.99;95578.09;4370701;32;20295;-60
2023/04/27 06:06:31;;;;;;;1.37;1.37;;;;;;;9.32;74.75;95568.00;4339831;32;20281;-60
2023/04/27 06:08:56;;;;;;;2.80;2.47;;;;;;;9.35;74.82;95578.06;4331662;32;20311;-61
2023/04/27 06:11:22;;;;;;;1.87;1.70;;;;;;;9.57;74.21;95569.59;4354669;32;20283;-60
2023/04/27 06:13:49;;;;;;;1.97;1.87;;;;;;;9.62;74.05;95567.69;4340172;32;20189;-60
2023/04/27 06:16:20;;;;;;;2.07;1.97;;;;;;;9.70;74.02;95562.88;4363320;32;20366;-60
2023/04/27 06:18:53;;;;;;;2.37;2.13;;;;;;;9.90;73.04;95562.66;4329052;32;20280;-60
2023/04/27 06:21:31;;;;;;;3.10;1.67;;;;;;;10.09;72.57;95566.13;4336898;32;20327;-52
2023/04/27 06:23:57;;;;;;;15.87;2.73;;;;;;;11.24;93.07;95566.63;4368299;32;20277;-54
2023/04/27 06:26:25;;;;;;;12.13;1.63;;;;;;;12.25;89.10;95570.13;4346664;32;20199;-56
2023/04/27 06:28:52;;;;;;;2.07;1.80;;;;;;;12.95;78.23;95572.31;4353818;32;20203;-54
2023/04/27 06:31:19;;;;;;;3.63;1.93;;;;;;;13.58;70.64;95579.34;4365915;32;20208;-55
2023/04/27 06:33:44;;;;;;;2.50;2.40;;;;;;;14.00;67.09;95572.63;4338194;32;20194;-52
2023/04/27 06:36:11;;;;;;;1.87;1.77;;;;;;;14.13;64.10;95578.97;4350660;32;20235;-54
2023/04/27 06:38:36;;;;;;;1.73;1.73;;;;;;;14.30;63.34;95578.25;4354454;32;20185;-55
2023/04/27 06:41:03;;;;;;;1.90;1.80;;;;;;;14.34;61.91;95582.63;4352934;32;20228;-53
2023/04/27 06:43:31;;;;;;;1.33;1.30;;;;;;;14.33;60.75;95578.41;4359918;32;20199;-55
2023/04/27 06:45:56;;;;;;;1.30;1.30;;;;;;;14.63;60.91;95573.31;4356951;32;20206;-53
2023/04/27 06:48:22;;;;;;;0.90;0.90;;;;;;;14.77;59.84;95573.94;4386303;32;20213;-53
2023/04/27 06:50:48;;;;;;;1.43;1.20;;;;;;;14.87;69.23;95578.19;4371268;32;20258;-53
2023/04/27 06:53:13;;;;;;;2.53;2.33;;;;;;;15.23;71.28;95580.53;4361095;32;20280;-53
2023/04/27 06:55:41;;;;;;;2.07;1.90;;;;;;;15.39;68.17;95586.97;4350077;32;20205;-59
2023/04/27 06:58:07;;;;;;;1.57;1.47;;;;;;;14.60;57.05;95579.25;4357536;32;20196;-58
2023/04/27 07:00:34;;;;;;;1.77;1.70;;;;;;;13.51;59.89;95586.97;4346635;32;20207;-58
2023/04/27 07:02:59;;;;;;;3.43;2.30;;;;;;;12.92;62.72;95586.22;4354240;32;20208;-58
2023/04/27 07:05:26;;;;;;;2.33;2.13;;;;;;;12.23;63.67;95587.47;4365111;32;20257;-58
2023/04/27 07:07:53;;;;;;;1.67;1.50;;;;;;;12.09;64.37;95584.78;4342590;32;20184;-57
2023/04/27 07:10:20;;;;;;;1.23;1.23;;;;;;;11.87;65.90;95587.34;4360184;32;20188;-59
2023/04/27 07:12:48;;;;;;;1.43;1.40;;;;;;;11.61;65.92;95581.69;4356625;32;20196;-59
2023/04/27 07:15:15;;;;;;;5.60;2.00;;;;;;;11.61;66.55;95582.47;4343404;32;20242;-59
2023/04/27 07:17:43;;;;;;;1.40;1.40;;;;;;;11.66;65.80;95587.69;4374360;32;20202;-59
2023/04/27 07:20:09;;;;;;;1.20;1.20;;;;;;;11.76;65.54;95585.94;4357011;32;20192;-59
2023/04/27 07:22:36;;;;;;;3.40;2.37;;;;;;;11.77;66.01;95582.22;4364758;32;20197;-59
2023/04/27 07:25:06;;;;;;;1.47;1.43;;;;;;;11.84;65.65;95582.63;4344633;32;20193;-58
2023/04/27 07:27:34;;;;;;;1.67;1.57;;;;;;;11.81;65.71;95593.84;4366765;32;20192;-60
2023/04/27 07:30:04;;;;;;;1.87;1.77;;;;;;;11.98;64.64;95592.19;4357248;32;20204;-59
2023/04/27 07:32:30;;;;;;;1.33;1.33;;;;;;;12.15;63.75;95588.16;4374052;32;20257;-59
2023/04/27 07:34:56;;;;;;;0.93;0.93;;;;;;;12.27;62.82;95585.75;4363395;32;20215;-59
2023/04/27 07:37:23;;;;;;;6.03;1.90;;;;;;;12.13;63.78;95588.44;4375469;32;20184;-61
2023/04/27 07:40:01;;;;;;;1.97;1.87;;;;;;;12.03;64.00;95591.31;4355568;32;20238;-58
2023/04/27 07:42:28;;;;;;;1.70;1.60;;;;;;;12.23;63.25;95587.47;4354896;32;20188;-59
2023/04/27 07:44:58;;;;;;;3.27;1.43;;;;;;;11.90;64.75;95592.06;4375286;32;20200;-59
2023/04/27 07:47:24;;;;;;;1.53;1.23;;;;;;;12.33;63.97;95585.38;4377552;32;20197;-59
2023/04/27 07:49:51;;;;;;;1.83;1.70;;;;;;;12.51;64.16;95586.34;4363262;32;20202;-59
2023/04/27 07:52:17;;;;;;;2.80;2.60;;;;;;;12.51;62.64;95585.53;4374711;32;20201;-60
2023/04/27 07:54:42;;;;;;;2.20;2.10;;;;;;;12.55;62.84;95582.00;4365665;32;20258;-58
2023/04/27 07:57:12;;;;;;;1.70;1.20;;;;;;;12.38;63.49;95579.97;4330937;32;20196;-60
2023/04/27 07:59:38;;;;;;;2.33;2.00;;;;;;;12.34;63.85;95586.16;4377486;32;20196;-59
2023/04/27 08:02:06;;;;;;;1.30;1.20;;;;;;;12.75;62.93;95588.75;4374170;32;20240;-59
2023/04/27 08:04:34;;;;;;;1.17;1.10;;;;;;;12.74;61.85;95587.19;4387263;32;20196;-59
2023/04/27 08:07:04;;;;;;;1.37;1.27;;;;;;;12.78;62.06;95596.13;4369251;32;20189;-59
2023/04/27 08:09:31;;;;;;;1.00;1.00;;;;;;;12.48;62.08;95597.56;4364598;32;20204;-60
2023/04/27 08:12:01;;;;;;;2.57;1.40;;;;;;;12.57;61.56;95597.66;4358749;32;20285;-57
2023/04/27 08:14:27;;;;;;;1.63;1.43;;;;;;;12.63;62.13;95599.16;4372861;32;20212;-59
2023/04/27 08:16:54;;;;;;;1.37;1.33;;;;;;;12.78;61.34;95601.47;4345417;32;20211;-60
2023/04/27 08:19:21;;;;;;;1.27;1.27;;;;;;;12.81;62.28;95597.41;4374085;32;20270;-59
2023/04/27 08:21:48;;;;;;;1.47;1.40;;;;;;;13.04;61.86;95599.81;4372259;32;20279;-60
2023/04/27 08:24:14;;;;;;;1.23;1.17;;;;;;;12.84;62.10;95605.59;4321739;32;20264;-59
2023/04/27 08:26:42;;;;;;;2.03;1.93;;;;;;;12.98;59.89;95603.69;4359603;32;20207;-59
2023/04/27 08:29:08;;;;;;;1.10;1.07;;;;;;;12.85;59.82;95596.53;4366427;32;20205;-59
2023/04/27 08:31:34;;;;;;;1.20;1.20;;;;;;;12.87;61.06;95605.00;4383874;32;20331;-58
2023/04/27 08:34:01;;;;;;;1.07;1.07;;;;;;;12.51;61.67;95602.31;4383544;32;20192;-58
2023/04/27 08:36:27;;;;;;;1.17;1.17;;;;;;;12.49;62.14;95607.12;4342353;32;20196;-59
2023/04/27 08:38:56;;;;;;;0.90;0.90;;;;;;;12.13;62.79;95601.75;4368907;32;20184;-58
2023/04/27 08:41:25;;;;;;;1.30;1.30;;;;;;;12.13;63.16;95603.59;4355937;32;20181;-60
2023/04/27 08:43:52;;;;;;;1.77;1.67;;;;;;;12.42;62.38;95600.66;4389594;32;20215;-58
2023/04/27 08:46:40;;;;;;;3.87;1.83;;;;;;;12.41;63.17;95605.19;4355396;32;20193;-58
2023/04/27 08:49:08;;;;;;;1.47;1.47;;;;;;;12.44;63.23;95606.47;4345946;32;20197;-59
2023/04/27 08:51:36;;;;;;;1.03;1.03;;;;;;;12.59;63.01;95611.47;4357455;32;20232;-60
2023/04/27 08:54:03;;;;;;;1.63;1.57;;;;;;;12.66;62.22;95601.22;4370678;32;20192;-59
2023/04/27 08:56:29;;;;;;;1.90;1.33;;;;;;;12.80;62.06;95609.16;4335097;32;20201;-59
2023/04/27 08:58:57;;;;;;;1.13;1.13;;;;;;;12.83;61.66;95604.03;4351537;32;20200;-59
2023/04/27 09:01:31;;;;;;;1.87;1.77;;;;;;;12.88;63.18;95606.59;4334561;32;20241;-60
2023/04/27 09:04:00;;;;;;;1.40;1.30;;;;;;;12.89;61.46;95597.47;4358264;32;20184;-59
2023/04/27 09:06:37;;;;;;;0.97;0.97;;;;;;;13.07;60.56;95596.56;4349099;32;20185;-59
2023/04/27 09:09:06;;;;;;;1.17;1.17;;;;;;;13.08;59.86;95600.00;4357880;32;20233;-59
2023/04/27 09:11:39;;;;;;;3.50;2.10;;;;;;;13.16;59.08;95596.63;4378926;32;20192;-59
2023/04/27 09:14:22;;;;;;;2.17;2.03;;;;;;;13.09;57.60;95593.59;4384253;32;20232;-59
2023/04/27 09:16:56;;;;;;;1.33;1.30;;;;;;;13.18;58.48;95585.69;4350644;32;20193;-58
2023/04/27 09:19:24;;;;;;;1.30;1.30;;;;;;;13.11;59.54;95582.59;4336555;32;20210;-59
2023/04/27 09:21:50;;;;;;;2.03;1.90;;;;;;;13.44;58.44;95588.53;4365737;32;20193;-59
2023/04/27 09:24:17;;;;;;;1.07;1.07;;;;;;;13.50;58.03;95593.44;4359952;32;20225;-59
2023/04/27 09:26:48;;;;;;;1.47;1.47;;;;;;;13.56;57.48;95588.75;4366400;32;20306;-61
2023/04/27 09:29:15;;;;;;;2.23;2.13;;;;;;;13.52;55.33;95588.56;4363485;32;20250;-59
2023/04/27 09:31:41;;;;;;;2.23;1.60;;;;;;;13.48;55.35;95590.28;4319573;32;20212;-59
2023/04/27 09:34:06;;;;;;;0.90;0.90;;;;;;;13.30;55.50;95585.94;4362989;32;20193;-58
2023/04/27 09:36:38;;;;;;;1.97;1.73;;;;;;;13.41;54.72;95577.38;4389828;32;20188;-59
2023/04/27 09:39:30;;;;;;;1.87;1.77;;;;;;;13.40;55.93;95580.34;4359692;32;20206;-58
2023/04/27 09:41:57;;;;;;;1.10;1.10;;;;;;;13.44;56.01;95573.31;4317571;32;20193;-59
2023/04/27 09:44:22;;;;;;;1.23;1.23;;;;;;;13.61;56.98;95564.63;4359919;32;20281;-59
2023/04/27 09:46:50;;;;;;;1.30;1.30;;;;;;;13.62;55.88;95572.31;4329392;32;20189;-59
2023/04/27 09:49:37;;;;;;;1.17;1.17;;;;;;;13.76;53.90;95566.88;4350153;32;20303;-59
2023/04/27 09:52:04;;;;;;;1.83;1.53;;;;;;;14.24;53.11;95568.78;4380558;32;20192;-59
2023/04/27 09:54:34;;;;;;;1.90;1.80;;;;;;;14.10;52.07;95558.25;4366851;32;20211;-60
2023/04/27 09:57:27;;;;;;;0.90;0.90;;;;;;;13.94;53.65;95559.75;4373359;32;20185;-59
2023/04/27 10:00:15;;;;;;;1.13;1.03;;;;;;;14.14;53.27;95561.84;4326534;32;20188;-62
2023/04/27 10:02:57;;;;;;;1.10;0.93;;;;;;;14.04;55.16;95556.81;4366339;32;20223;-59
2023/04/27 10:05:41;;;;;;;1.20;1.10;;;;;;;14.30;53.48;95554.22;4333784;32;20181;-62
2023/04/27 10:08:14;;;;;;;1.50;1.50;;;;;;;14.36;52.71;95552.97;4370858;32;20226;-59
2023/04/27 10:10:49;;;;;;;6.50;1.00;;;;;;;14.39;50.62;95561.12;4377697;32;20207;-59
2023/04/27 10:13:26;;;;;;;4.33;0.97;;;;;;;14.36;50.46;95548.41;4350468;32;20227;-59
2023/04/27 10:15:55;;;;;;;1.30;1.20;;;;;;;14.15;51.24;95544.75;4343177;32;20219;-59
2023/04/27 10:18:30;;;;;;;0.90;0.90;;;;;;;14.38;50.73;95532.09;4367598;32;20213;-59
2023/04/27 10:21:08;;;;;;;1.33;1.27;;;;;;;14.22;51.57;95537.09;4364287;32;20271;-62
2023/04/27 10:23:49;;;;;;;1.90;0.93;;;;;;;14.30;53.30;95539.00;4344962;32;20189;-59
2023/04/27 10:26:23;;;;;;;2.40;1.50;;;;;;;14.35;53.11;95536.16;4327670;32;20223;-59
2023/04/27 10:29:07;;;;;;;1.87;1.10;;;;;;;14.35;53.63;95530.81;4340056;32;20205;-59
2023/04/27 10:31:44;;;;;;;1.00;1.00;;;;;;;14.51;53.08;95527.75;4317963;32;20223;-59
2023/04/27 10:34:18;;;;;;;1.20;1.20;;;;;;;14.80;51.69;95538.59;4378110;32;20238;-59
2023/04/27 10:36:44;;;;;;;0.60;0.60;;;;;;;14.64;51.70;95538.28;4357774;32;20295;-59
2023/04/27 10:39:18;;;;;;;1.10;1.07;;;;;;;14.58;51.73;95538.72;4352487;32;20200;-59
2023/04/27 10:41:55;;;;;;;1.30;1.30;;;;;;;14.32;50.60;95533.34;4349607;32;22811;-59
2023/04/27 10:44:29;;;;;;;1.03;1.03;;;;;;;14.32;50.93;95531.47;4362931;32;20247;-59
2023/04/27 10:47:13;;;;;;;1.23;1.23;;;;;;;14.30;52.34;95532.88;4335508;32;20192;-59
2023/04/27 10:49:39;;;;;;;4.37;1.30;;;;;;;14.43;51.60;95524.75;4352676;32;20211;-60
2023/04/27 10:52:05;;;;;;;3.40;1.63;;;;;;;14.39;52.91;95529.09;4384558;32;20243;-60
2023/04/27 10:54:31;;;;;;;0.40;0.40;;;;;;;14.28;52.83;95525.16;4363951;32;20217;-60
2023/04/27 10:57:07;;;;;;;1.80;1.40;;;;;;;14.43;52.98;95527.41;4321360;32;20209;-60
2023/04/27 10:59:37;;;;;;;0.80;0.80;;;;;;;14.29;51.91;95526.75;4355680;32;20184;-60
2023/04/27 11:02:03;;;;;;;0.57;0.57;;;;;;;14.41;52.14;95528.81;4351454;32;20302;-60
2023/04/27 11:04:39;;;;;;;1.07;1.07;;;;;;;14.49;51.87;95532.63;4346572;32;20226;-60
2023/04/27 11:07:07;;;;;;;1.03;1.03;;;;;;;14.58;50.86;95528.06;4359410;32;20512;-60
2023/04/27 11:09:49;;;;;;;11.73;1.20;;;;;;;14.62;50.95;95527.13;4372400;32;20230;-60
2023/04/27 11:12:14;;;;;;;1.10;1.10;;;;;;;14.59;50.86;95526.94;4352349;32;20314;-60
2023/04/27 11:14:46;;;;;;;0.70;0.70;;;;;;;14.55;52.78;95520.69;4377475;32;20192;-60
2023/04/27 11:17:26;;;;;;;0.73;0.73;;;;;;;14.56;52.67;95523.03;4380134;32;20189;-61
2023/04/27 11:19:58;;;;;;;1.03;1.03;;;;;;;14.86;50.56;95529.31;4349836;32;20184;-55
2023/04/27 11:22:24;;;;;;;0.53;0.53;;;;;;;14.93;52.71;95526.97;4357470;32;20180;-57
2023/04/27 11:24:52;;;;;;;0.53;0.53;;;;;;;16.98;64.51;95539.03;4328452;32;20208;-58
2023/04/27 11:27:20;;;;;;;0.63;0.63;;;;;;;17.83;55.20;95525.88;4360077;32;20220;-58
2023/04/27 11:29:46;;;;;;;2.13;1.07;;;;;;;18.50;53.01;95521.81;4337001;32;20185;-58
2023/04/27 11:32:38;;;;;;;1.13;1.13;;;;;;;17.85;46.50;95525.56;4352561;32;20185;-58
2023/04/27 11:35:09;;;;;;;0.60;0.60;;;;;;;17.31;45.86;95530.19;4346971;32;20225;-58
2023/04/27 11:37:36;;;;;;;1.07;0.63;;;;;;;16.77;46.39;95532.88;4340431;32;20260;-58
2023/04/27 11:40:03;;;;;;;1.00;1.00;;;;;;;16.45;48.58;95531.66;4320591;32;20205;-59
2023/04/27 11:42:30;;;;;;;0.47;0.47;;;;;;;16.31;47.60;95534.56;4358408;32;20180;-58
2023/04/27 11:45:04;;;;;;;2.40;1.87;;;;;;;15.58;49.41;95539.31;4353439;32;20194;-57